sensor_id;sensor_type;location;lat;lon;timestamp;P1;durP1;ratioP1;P2;durP2;ratioP2
23310;SDS011;11828;51.508;18.118;2024-02-23T00:01:49;169.68;;;81.05;;
23310;SDS011;11828;51.508;18.118;2024-02-23T00:04:16;182.60;;;82.93;;
23310;SDS011;11828;51.508;18.118;2024-02-23T00:06:45;171.65;;;81.30;;
23310;SDS011;11828;51.508;18.118;2024-02-23T00:09:12;168.25;;;79.88;;
23310;SDS011;11828;51.508;18.118;2024-02-23T00:11:41;167.20;;;79.65;;
23310;SDS011;11828;51.508;18.118;2024-02-23T00:14:10;167.05;;;80.72;;
23310;SDS011;11828;51.508;18.118;2024-02-23T00:16:41;172.73;;;80.75;;
23310;SDS011;11828;51.508;18.118;2024-02-23T00:19:10;173.75;;;82.25;;
23310;SDS011;11828;51.508;18.118;2024-02-23T00:21:37;166.68;;;79.07;;
23310;SDS011;11828;51.508;18.118;2024-02-23T00:24:04;167.90;;;80.72;;
23310;SDS011;11828;51.508;18.118;2024-02-23T00:26:31;162.18;;;77.68;;
23310;SDS011;11828;51.508;18.118;2024-02-23T00:28:58;164.85;;;78.85;;
23310;SDS011;11828;51.508;18.118;2024-02-23T00:31:24;161.77;;;78.30;;
23310;SDS011;11828;51.508;18.118;2024-02-23T00:33:51;172.13;;;81.15;;
23310;SDS011;11828;51.508;18.118;2024-02-23T00:36:17;175.02;;;82.18;;
23310;SDS011;11828;51.508;18.118;2024-02-23T00:38:44;162.13;;;78.05;;
23310;SDS011;11828;51.508;18.118;2024-02-23T00:41:10;163.90;;;78.45;;
23310;SDS011;11828;51.508;18.118;2024-02-23T00:43:37;175.07;;;81.35;;
23310;SDS011;11828;51.508;18.118;2024-02-23T00:46:05;164.00;;;79.95;;
23310;SDS011;11828;51.508;18.118;2024-02-23T00:48:32;166.23;;;79.43;;
23310;SDS011;11828;51.508;18.118;2024-02-23T00:50:58;166.30;;;78.22;;
23310;SDS011;11828;51.508;18.118;2024-02-23T00:53:26;166.68;;;80.43;;
23310;SDS011;11828;51.508;18.118;2024-02-23T00:55:52;174.32;;;80.15;;
23310;SDS011;11828;51.508;18.118;2024-02-23T00:58:19;161.48;;;78.53;;
23310;SDS011;11828;51.508;18.118;2024-02-23T01:00:46;172.77;;;79.70;;
23310;SDS011;11828;51.508;18.118;2024-02-23T01:03:12;179.48;;;80.28;;
23310;SDS011;11828;51.508;18.118;2024-02-23T01:05:39;163.02;;;76.78;;
23310;SDS011;11828;51.508;18.118;2024-02-23T01:08:08;164.88;;;77.82;;
23310;SDS011;11828;51.508;18.118;2024-02-23T01:10:34;179.32;;;79.68;;
23310;SDS011;11828;51.508;18.118;2024-02-23T01:13:01;167.02;;;78.38;;
23310;SDS011;11828;51.508;18.118;2024-02-23T01:15:27;172.63;;;77.43;;
23310;SDS011;11828;51.508;18.118;2024-02-23T01:17:53;164.07;;;77.32;;
23310;SDS011;11828;51.508;18.118;2024-02-23T01:20:21;162.52;;;77.68;;
23310;SDS011;11828;51.508;18.118;2024-02-23T01:22:48;160.20;;;77.03;;
23310;SDS011;11828;51.508;18.118;2024-02-23T01:25:14;158.68;;;75.78;;
23310;SDS011;11828;51.508;18.118;2024-02-23T01:27:41;167.80;;;78.88;;
23310;SDS011;11828;51.508;18.118;2024-02-23T01:30:10;162.60;;;77.50;;
23310;SDS011;11828;51.508;18.118;2024-02-23T01:32:36;161.82;;;77.82;;
23310;SDS011;11828;51.508;18.118;2024-02-23T01:35:05;164.63;;;77.57;;
23310;SDS011;11828;51.508;18.118;2024-02-23T01:37:31;165.67;;;78.13;;
23310;SDS011;11828;51.508;18.118;2024-02-23T01:39:58;160.87;;;78.30;;
23310;SDS011;11828;51.508;18.118;2024-02-23T01:42:25;163.80;;;78.10;;
23310;SDS011;11828;51.508;18.118;2024-02-23T01:44:52;159.13;;;76.47;;
23310;SDS011;11828;51.508;18.118;2024-02-23T01:47:34;171.80;;;80.67;;
23310;SDS011;11828;51.508;18.118;2024-02-23T01:50:03;162.33;;;77.20;;
23310;SDS011;11828;51.508;18.118;2024-02-23T01:52:30;164.00;;;78.33;;
23310;SDS011;11828;51.508;18.118;2024-02-23T01:54:56;160.02;;;76.90;;
23310;SDS011;11828;51.508;18.118;2024-02-23T01:57:23;162.35;;;77.88;;
23310;SDS011;11828;51.508;18.118;2024-02-23T01:59:50;174.00;;;79.13;;
23310;SDS011;11828;51.508;18.118;2024-02-23T02:02:16;165.77;;;80.97;;
23310;SDS011;11828;51.508;18.118;2024-02-23T02:04:43;162.07;;;78.50;;
23310;SDS011;11828;51.508;18.118;2024-02-23T02:07:09;164.83;;;78.70;;
23310;SDS011;11828;51.508;18.118;2024-02-23T02:09:36;165.23;;;78.40;;
23310;SDS011;11828;51.508;18.118;2024-02-23T02:12:02;168.37;;;79.23;;
23310;SDS011;11828;51.508;18.118;2024-02-23T02:14:29;176.03;;;81.60;;
23310;SDS011;11828;51.508;18.118;2024-02-23T02:16:57;164.73;;;79.00;;
23310;SDS011;11828;51.508;18.118;2024-02-23T02:19:23;163.50;;;78.73;;
23310;SDS011;11828;51.508;18.118;2024-02-23T02:21:50;182.63;;;82.90;;
23310;SDS011;11828;51.508;18.118;2024-02-23T02:24:16;158.83;;;77.63;;
23310;SDS011;11828;51.508;18.118;2024-02-23T02:26:42;160.33;;;77.83;;
23310;SDS011;11828;51.508;18.118;2024-02-23T02:29:11;161.67;;;78.47;;
23310;SDS011;11828;51.508;18.118;2024-02-23T02:31:40;159.63;;;77.33;;
23310;SDS011;11828;51.508;18.118;2024-02-23T02:34:06;161.80;;;77.27;;
23310;SDS011;11828;51.508;18.118;2024-02-23T02:36:33;163.33;;;78.37;;
23310;SDS011;11828;51.508;18.118;2024-02-23T02:39:00;159.90;;;78.20;;
23310;SDS011;11828;51.508;18.118;2024-02-23T02:41:28;168.20;;;78.17;;
23310;SDS011;11828;51.508;18.118;2024-02-23T02:43:56;167.93;;;78.47;;
23310;SDS011;11828;51.508;18.118;2024-02-23T02:46:22;159.53;;;77.70;;
23310;SDS011;11828;51.508;18.118;2024-02-23T02:48:49;161.20;;;78.33;;
23310;SDS011;11828;51.508;18.118;2024-02-23T02:51:15;159.30;;;78.07;;
23310;SDS011;11828;51.508;18.118;2024-02-23T02:53:42;159.73;;;77.60;;
23310;SDS011;11828;51.508;18.118;2024-02-23T02:56:08;172.53;;;79.73;;
23310;SDS011;11828;51.508;18.118;2024-02-23T02:58:35;161.60;;;80.27;;
23310;SDS011;11828;51.508;18.118;2024-02-23T03:01:01;164.60;;;80.23;;
23310;SDS011;11828;51.508;18.118;2024-02-23T03:03:28;159.17;;;76.57;;
23310;SDS011;11828;51.508;18.118;2024-02-23T03:05:54;159.13;;;78.73;;
23310;SDS011;11828;51.508;18.118;2024-02-23T03:08:21;172.40;;;79.77;;
23310;SDS011;11828;51.508;18.118;2024-02-23T03:10:47;159.10;;;77.57;;
23310;SDS011;11828;51.508;18.118;2024-02-23T03:13:21;162.27;;;78.07;;
23310;SDS011;11828;51.508;18.118;2024-02-23T03:15:47;160.30;;;78.20;;
23310;SDS011;11828;51.508;18.118;2024-02-23T03:18:14;162.90;;;78.17;;
23310;SDS011;11828;51.508;18.118;2024-02-23T03:20:41;164.73;;;80.43;;
23310;SDS011;11828;51.508;18.118;2024-02-23T03:23:07;174.97;;;81.27;;
23310;SDS011;11828;51.508;18.118;2024-02-23T03:25:34;162.87;;;77.93;;
23310;SDS011;11828;51.508;18.118;2024-02-23T03:28:00;160.73;;;78.20;;
23310;SDS011;11828;51.508;18.118;2024-02-23T03:30:27;163.60;;;78.07;;
23310;SDS011;11828;51.508;18.118;2024-02-23T03:32:53;159.40;;;76.87;;
23310;SDS011;11828;51.508;18.118;2024-02-23T03:35:20;162.53;;;78.77;;
23310;SDS011;11828;51.508;18.118;2024-02-23T03:37:46;162.70;;;78.43;;
23310;SDS011;11828;51.508;18.118;2024-02-23T03:40:13;158.60;;;77.00;;
23310;SDS011;11828;51.508;18.118;2024-02-23T03:42:39;163.30;;;77.73;;
23310;SDS011;11828;51.508;18.118;2024-02-23T03:45:06;171.57;;;80.30;;
23310;SDS011;11828;51.508;18.118;2024-02-23T03:47:33;160.23;;;77.63;;
23310;SDS011;11828;51.508;18.118;2024-02-23T03:49:59;162.37;;;76.80;;
23310;SDS011;11828;51.508;18.118;2024-02-23T03:52:26;165.37;;;78.37;;
23310;SDS011;11828;51.508;18.118;2024-02-23T03:54:52;170.30;;;78.87;;
23310;SDS011;11828;51.508;18.118;2024-02-23T03:57:20;163.63;;;78.13;;
23310;SDS011;11828;51.508;18.118;2024-02-23T03:59:53;162.60;;;76.97;;
23310;SDS011;11828;51.508;18.118;2024-02-23T04:02:20;162.80;;;77.63;;
23310;SDS011;11828;51.508;18.118;2024-02-23T04:04:47;166.47;;;76.40;;
23310;SDS011;11828;51.508;18.118;2024-02-23T04:07:14;164.73;;;76.73;;
23310;SDS011;11828;51.508;18.118;2024-02-23T04:09:40;164.37;;;78.17;;
23310;SDS011;11828;51.508;18.118;2024-02-23T04:12:07;161.00;;;75.47;;
23310;SDS011;11828;51.508;18.118;2024-02-23T04:14:33;162.87;;;77.87;;
23310;SDS011;11828;51.508;18.118;2024-02-23T04:17:05;167.63;;;78.53;;
23310;SDS011;11828;51.508;18.118;2024-02-23T04:19:31;161.63;;;77.80;;
23310;SDS011;11828;51.508;18.118;2024-02-23T04:21:57;160.67;;;78.37;;
23310;SDS011;11828;51.508;18.118;2024-02-23T04:24:24;160.60;;;77.50;;
23310;SDS011;11828;51.508;18.118;2024-02-23T04:26:50;161.63;;;77.00;;
23310;SDS011;11828;51.508;18.118;2024-02-23T04:29:17;162.80;;;77.50;;
23310;SDS011;11828;51.508;18.118;2024-02-23T04:31:43;160.63;;;76.97;;
23310;SDS011;11828;51.508;18.118;2024-02-23T04:34:10;169.73;;;79.80;;
23310;SDS011;11828;51.508;18.118;2024-02-23T04:36:36;163.37;;;77.37;;
23310;SDS011;11828;51.508;18.118;2024-02-23T04:39:03;161.43;;;76.90;;
23310;SDS011;11828;51.508;18.118;2024-02-23T04:41:29;161.87;;;78.13;;
23310;SDS011;11828;51.508;18.118;2024-02-23T04:43:56;162.27;;;78.27;;
23310;SDS011;11828;51.508;18.118;2024-02-23T04:46:25;159.40;;;78.50;;
23310;SDS011;11828;51.508;18.118;2024-02-23T04:48:52;171.70;;;80.67;;
23310;SDS011;11828;51.508;18.118;2024-02-23T04:51:18;162.23;;;78.80;;
23310;SDS011;11828;51.508;18.118;2024-02-23T04:53:45;158.07;;;75.87;;
23310;SDS011;11828;51.508;18.118;2024-02-23T04:56:12;164.27;;;78.27;;
23310;SDS011;11828;51.508;18.118;2024-02-23T04:58:38;162.60;;;78.30;;
23310;SDS011;11828;51.508;18.118;2024-02-23T05:01:06;174.07;;;78.83;;
23310;SDS011;11828;51.508;18.118;2024-02-23T05:03:33;168.70;;;79.43;;
23310;SDS011;11828;51.508;18.118;2024-02-23T05:06:00;160.60;;;76.60;;
23310;SDS011;11828;51.508;18.118;2024-02-23T05:08:27;160.97;;;77.17;;
23310;SDS011;11828;51.508;18.118;2024-02-23T05:10:58;164.90;;;78.03;;
23310;SDS011;11828;51.508;18.118;2024-02-23T05:13:25;164.90;;;78.07;;
23310;SDS011;11828;51.508;18.118;2024-02-23T05:15:55;167.10;;;78.87;;
23310;SDS011;11828;51.508;18.118;2024-02-23T05:18:22;173.70;;;79.63;;
23310;SDS011;11828;51.508;18.118;2024-02-23T05:20:49;164.63;;;78.70;;
23310;SDS011;11828;51.508;18.118;2024-02-23T05:23:15;164.63;;;78.83;;
23310;SDS011;11828;51.508;18.118;2024-02-23T05:25:42;169.53;;;78.80;;
23310;SDS011;11828;51.508;18.118;2024-02-23T05:28:08;159.73;;;75.70;;
23310;SDS011;11828;51.508;18.118;2024-02-23T05:30:35;167.33;;;77.80;;
23310;SDS011;11828;51.508;18.118;2024-02-23T05:33:02;164.67;;;78.10;;
23310;SDS011;11828;51.508;18.118;2024-02-23T05:35:29;170.37;;;80.70;;
23310;SDS011;11828;51.508;18.118;2024-02-23T05:37:55;173.67;;;81.17;;
23310;SDS011;11828;51.508;18.118;2024-02-23T05:40:22;163.53;;;79.27;;
23310;SDS011;11828;51.508;18.118;2024-02-23T05:42:48;176.33;;;80.50;;
23310;SDS011;11828;51.508;18.118;2024-02-23T05:45:15;182.17;;;80.77;;
23310;SDS011;11828;51.508;18.118;2024-02-23T05:47:41;171.50;;;80.97;;
23310;SDS011;11828;51.508;18.118;2024-02-23T05:50:08;209.07;;;85.00;;
23310;SDS011;11828;51.508;18.118;2024-02-23T05:52:34;163.70;;;79.50;;
23310;SDS011;11828;51.508;18.118;2024-02-23T05:55:04;174.98;;;80.78;;
23310;SDS011;11828;51.508;18.118;2024-02-23T05:57:31;179.60;;;81.93;;
23310;SDS011;11828;51.508;18.118;2024-02-23T05:59:57;169.68;;;79.82;;
23310;SDS011;11828;51.508;18.118;2024-02-23T06:02:24;180.03;;;80.97;;
23310;SDS011;11828;51.508;18.118;2024-02-23T06:04:51;186.90;;;83.20;;
23310;SDS011;11828;51.508;18.118;2024-02-23T06:07:17;163.70;;;78.70;;
23310;SDS011;11828;51.508;18.118;2024-02-23T06:09:46;171.50;;;79.80;;
23310;SDS011;11828;51.508;18.118;2024-02-23T06:12:12;171.60;;;80.37;;
23310;SDS011;11828;51.508;18.118;2024-02-23T06:14:39;165.52;;;78.13;;
23310;SDS011;11828;51.508;18.118;2024-02-23T06:17:05;165.57;;;78.87;;
23310;SDS011;11828;51.508;18.118;2024-02-23T06:19:33;168.85;;;81.18;;
23310;SDS011;11828;51.508;18.118;2024-02-23T06:22:00;177.27;;;79.37;;
23310;SDS011;11828;51.508;18.118;2024-02-23T06:24:27;169.40;;;78.23;;
23310;SDS011;11828;51.508;18.118;2024-02-23T06:26:53;168.80;;;79.03;;
23310;SDS011;11828;51.508;18.118;2024-02-23T06:29:20;166.53;;;77.30;;
23310;SDS011;11828;51.508;18.118;2024-02-23T06:31:49;179.07;;;81.67;;
23310;SDS011;11828;51.508;18.118;2024-02-23T06:34:16;187.70;;;83.07;;
23310;SDS011;11828;51.508;18.118;2024-02-23T06:36:42;175.83;;;80.80;;
23310;SDS011;11828;51.508;18.118;2024-02-23T06:39:09;174.57;;;79.85;;
23310;SDS011;11828;51.508;18.118;2024-02-23T06:41:37;169.95;;;79.72;;
23310;SDS011;11828;51.508;18.118;2024-02-23T06:44:04;178.80;;;80.68;;
23310;SDS011;11828;51.508;18.118;2024-02-23T06:46:31;176.20;;;78.90;;
23310;SDS011;11828;51.508;18.118;2024-02-23T06:48:57;163.57;;;77.57;;
23310;SDS011;11828;51.508;18.118;2024-02-23T06:51:24;171.23;;;78.57;;
23310;SDS011;11828;51.508;18.118;2024-02-23T06:53:50;169.73;;;77.37;;
23310;SDS011;11828;51.508;18.118;2024-02-23T06:56:24;188.13;;;81.17;;
23310;SDS011;11828;51.508;18.118;2024-02-23T06:58:50;197.32;;;82.95;;
23310;SDS011;11828;51.508;18.118;2024-02-23T07:01:17;194.03;;;82.43;;
23310;SDS011;11828;51.508;18.118;2024-02-23T07:03:46;198.02;;;86.20;;
23310;SDS011;11828;51.508;18.118;2024-02-23T07:06:14;192.55;;;84.18;;
23310;SDS011;11828;51.508;18.118;2024-02-23T07:08:44;193.25;;;83.07;;
23310;SDS011;11828;51.508;18.118;2024-02-23T07:11:11;176.80;;;80.00;;
23310;SDS011;11828;51.508;18.118;2024-02-23T07:13:37;176.35;;;77.22;;
23310;SDS011;11828;51.508;18.118;2024-02-23T07:16:05;195.17;;;85.40;;
23310;SDS011;11828;51.508;18.118;2024-02-23T07:18:31;194.55;;;84.68;;
23310;SDS011;11828;51.508;18.118;2024-02-23T07:20:58;175.13;;;78.43;;
23310;SDS011;11828;51.508;18.118;2024-02-23T07:23:25;171.17;;;79.70;;
23310;SDS011;11828;51.508;18.118;2024-02-23T07:25:51;182.50;;;80.50;;
23310;SDS011;11828;51.508;18.118;2024-02-23T07:28:22;178.17;;;79.50;;
23310;SDS011;11828;51.508;18.118;2024-02-23T07:30:48;170.32;;;78.05;;
23310;SDS011;11828;51.508;18.118;2024-02-23T07:33:15;174.93;;;79.28;;
23310;SDS011;11828;51.508;18.118;2024-02-23T07:35:41;170.63;;;77.47;;
23310;SDS011;11828;51.508;18.118;2024-02-23T07:38:08;175.57;;;77.53;;
23310;SDS011;11828;51.508;18.118;2024-02-23T07:40:34;176.27;;;77.60;;
23310;SDS011;11828;51.508;18.118;2024-02-23T07:43:01;168.35;;;76.63;;
23310;SDS011;11828;51.508;18.118;2024-02-23T07:45:27;172.80;;;77.93;;
23310;SDS011;11828;51.508;18.118;2024-02-23T07:47:54;182.77;;;83.28;;
23310;SDS011;11828;51.508;18.118;2024-02-23T07:50:28;186.75;;;86.13;;
23310;SDS011;11828;51.508;18.118;2024-02-23T07:52:54;178.10;;;80.97;;
23310;SDS011;11828;51.508;18.118;2024-02-23T07:55:21;173.77;;;80.18;;
23310;SDS011;11828;51.508;18.118;2024-02-23T07:57:47;179.43;;;83.07;;
23310;SDS011;11828;51.508;18.118;2024-02-23T08:00:14;192.55;;;83.55;;
23310;SDS011;11828;51.508;18.118;2024-02-23T08:02:41;193.85;;;83.95;;
23310;SDS011;11828;51.508;18.118;2024-02-23T08:05:07;172.18;;;79.47;;
23310;SDS011;11828;51.508;18.118;2024-02-23T08:07:34;188.02;;;85.53;;
23310;SDS011;11828;51.508;18.118;2024-02-23T08:10:00;174.23;;;81.18;;
23310;SDS011;11828;51.508;18.118;2024-02-23T08:12:28;171.13;;;79.22;;
23310;SDS011;11828;51.508;18.118;2024-02-23T08:14:54;189.57;;;81.90;;
23310;SDS011;11828;51.508;18.118;2024-02-23T08:17:21;195.65;;;83.82;;
23310;SDS011;11828;51.508;18.118;2024-02-23T08:19:47;188.85;;;83.05;;
23310;SDS011;11828;51.508;18.118;2024-02-23T08:22:22;180.15;;;80.40;;
23310;SDS011;11828;51.508;18.118;2024-02-23T08:24:48;179.68;;;82.53;;
23310;SDS011;11828;51.508;18.118;2024-02-23T08:27:15;194.63;;;87.70;;
23310;SDS011;11828;51.508;18.118;2024-02-23T08:29:41;178.02;;;80.80;;
23310;SDS011;11828;51.508;18.118;2024-02-23T08:32:09;176.10;;;80.63;;
23310;SDS011;11828;51.508;18.118;2024-02-23T08:34:35;191.48;;;85.68;;
23310;SDS011;11828;51.508;18.118;2024-02-23T08:37:02;186.25;;;83.72;;
23310;SDS011;11828;51.508;18.118;2024-02-23T08:39:37;171.40;;;77.93;;
23310;SDS011;11828;51.508;18.118;2024-02-23T08:42:04;175.93;;;79.93;;
23310;SDS011;11828;51.508;18.118;2024-02-23T08:44:30;177.55;;;79.18;;
23310;SDS011;11828;51.508;18.118;2024-02-23T08:46:57;181.30;;;77.70;;
23310;SDS011;11828;51.508;18.118;2024-02-23T08:49:23;174.85;;;77.35;;
23310;SDS011;11828;51.508;18.118;2024-02-23T08:51:50;192.73;;;79.53;;
23310;SDS011;11828;51.508;18.118;2024-02-23T08:54:16;180.77;;;79.43;;
23310;SDS011;11828;51.508;18.118;2024-02-23T08:56:43;188.70;;;80.20;;
23310;SDS011;11828;51.508;18.118;2024-02-23T08:59:10;168.30;;;75.43;;
23310;SDS011;11828;51.508;18.118;2024-02-23T09:01:36;181.15;;;78.53;;
23310;SDS011;11828;51.508;18.118;2024-02-23T09:04:03;207.25;;;86.93;;
23310;SDS011;11828;51.508;18.118;2024-02-23T09:06:29;196.85;;;81.95;;
23310;SDS011;11828;51.508;18.118;2024-02-23T09:08:58;218.27;;;93.15;;
23310;SDS011;11828;51.508;18.118;2024-02-23T09:11:25;228.30;;;98.22;;
23310;SDS011;11828;51.508;18.118;2024-02-23T09:13:51;238.23;;;94.32;;
23310;SDS011;11828;51.508;18.118;2024-02-23T09:16:18;232.05;;;95.07;;
23310;SDS011;11828;51.508;18.118;2024-02-23T09:18:45;204.25;;;84.63;;
23310;SDS011;11828;51.508;18.118;2024-02-23T09:21:19;226.75;;;90.10;;
23310;SDS011;11828;51.508;18.118;2024-02-23T09:23:46;237.57;;;92.50;;
23310;SDS011;11828;51.508;18.118;2024-02-23T09:26:13;194.35;;;82.38;;
23310;SDS011;11828;51.508;18.118;2024-02-23T09:28:46;233.90;;;94.35;;
23310;SDS011;11828;51.508;18.118;2024-02-23T09:31:13;265.27;;;102.97;;
23310;SDS011;11828;51.508;18.118;2024-02-23T09:33:40;226.02;;;90.20;;
23310;SDS011;11828;51.508;18.118;2024-02-23T09:36:06;189.95;;;80.45;;
23310;SDS011;11828;51.508;18.118;2024-02-23T09:38:40;201.55;;;82.07;;
23310;SDS011;11828;51.508;18.118;2024-02-23T09:41:10;198.57;;;80.55;;
23310;SDS011;11828;51.508;18.118;2024-02-23T09:43:42;211.77;;;81.25;;
23310;SDS011;11828;51.508;18.118;2024-02-23T09:46:08;189.98;;;77.00;;
23310;SDS011;11828;51.508;18.118;2024-02-23T09:48:35;209.77;;;81.75;;
23310;SDS011;11828;51.508;18.118;2024-02-23T09:51:02;192.68;;;78.63;;
23310;SDS011;11828;51.508;18.118;2024-02-23T09:53:30;184.90;;;77.07;;
23310;SDS011;11828;51.508;18.118;2024-02-23T09:55:57;213.85;;;80.70;;
23310;SDS011;11828;51.508;18.118;2024-02-23T09:58:25;189.57;;;77.38;;
23310;SDS011;11828;51.508;18.118;2024-02-23T10:00:55;187.32;;;76.65;;
23310;SDS011;11828;51.508;18.118;2024-02-23T10:03:27;219.00;;;84.50;;
23310;SDS011;11828;51.508;18.118;2024-02-23T10:05:56;193.90;;;79.93;;
23310;SDS011;11828;51.508;18.118;2024-02-23T10:08:22;196.88;;;82.90;;
23310;SDS011;11828;51.508;18.118;2024-02-23T10:10:49;207.27;;;85.40;;
23310;SDS011;11828;51.508;18.118;2024-02-23T10:13:20;209.48;;;85.45;;
23310;SDS011;11828;51.508;18.118;2024-02-23T10:15:49;214.15;;;86.60;;
23310;SDS011;11828;51.508;18.118;2024-02-23T10:18:16;209.35;;;88.43;;
23310;SDS011;11828;51.508;18.118;2024-02-23T10:20:50;217.25;;;87.72;;
23310;SDS011;11828;51.508;18.118;2024-02-23T10:23:17;192.52;;;80.53;;
23310;SDS011;11828;51.508;18.118;2024-02-23T10:25:45;202.50;;;81.20;;
23310;SDS011;11828;51.508;18.118;2024-02-23T10:28:12;205.30;;;81.45;;
23310;SDS011;11828;51.508;18.118;2024-02-23T10:30:39;210.38;;;81.57;;
23310;SDS011;11828;51.508;18.118;2024-02-23T10:33:06;192.75;;;76.45;;
23310;SDS011;11828;51.508;18.118;2024-02-23T10:35:32;207.18;;;77.90;;
23310;SDS011;11828;51.508;18.118;2024-02-23T10:38:11;197.85;;;75.68;;
23310;SDS011;11828;51.508;18.118;2024-02-23T10:40:38;189.95;;;75.03;;
23310;SDS011;11828;51.508;18.118;2024-02-23T10:43:10;191.50;;;74.93;;
23310;SDS011;11828;51.508;18.118;2024-02-23T10:45:39;198.73;;;75.20;;
23310;SDS011;11828;51.508;18.118;2024-02-23T10:48:07;184.65;;;77.22;;
23310;SDS011;11828;51.508;18.118;2024-02-23T10:50:35;188.73;;;73.13;;
23310;SDS011;11828;51.508;18.118;2024-02-23T10:53:03;197.43;;;74.75;;
23310;SDS011;11828;51.508;18.118;2024-02-23T10:55:31;191.25;;;74.47;;
23310;SDS011;11828;51.508;18.118;2024-02-23T10:57:58;169.55;;;69.35;;
23310;SDS011;11828;51.508;18.118;2024-02-23T11:00:25;191.15;;;73.22;;
23310;SDS011;11828;51.508;18.118;2024-02-23T11:02:52;210.88;;;81.05;;
23310;SDS011;11828;51.508;18.118;2024-02-23T11:05:20;171.98;;;70.30;;
23310;SDS011;11828;51.508;18.118;2024-02-23T11:07:46;197.02;;;73.90;;
23310;SDS011;11828;51.508;18.118;2024-02-23T11:10:17;204.85;;;76.18;;
23310;SDS011;11828;51.508;18.118;2024-02-23T11:12:56;173.15;;;70.47;;
23310;SDS011;11828;51.508;18.118;2024-02-23T11:15:28;189.50;;;73.07;;
23310;SDS011;11828;51.508;18.118;2024-02-23T11:17:58;183.45;;;72.32;;
23310;SDS011;11828;51.508;18.118;2024-02-23T11:20:33;196.45;;;74.72;;
23310;SDS011;11828;51.508;18.118;2024-02-23T11:23:00;197.73;;;75.43;;
23310;SDS011;11828;51.508;18.118;2024-02-23T11:25:27;189.80;;;74.18;;
23310;SDS011;11828;51.508;18.118;2024-02-23T11:27:54;196.13;;;74.72;;
23310;SDS011;11828;51.508;18.118;2024-02-23T11:30:21;185.43;;;73.45;;
23310;SDS011;11828;51.508;18.118;2024-02-23T11:32:48;208.60;;;76.68;;
23310;SDS011;11828;51.508;18.118;2024-02-23T11:35:19;182.30;;;72.95;;
23310;SDS011;11828;51.508;18.118;2024-02-23T11:37:53;186.13;;;74.18;;
23310;SDS011;11828;51.508;18.118;2024-02-23T11:40:27;203.75;;;75.85;;
23310;SDS011;11828;51.508;18.118;2024-02-23T11:42:57;185.40;;;73.20;;
23310;SDS011;11828;51.508;18.118;2024-02-23T11:45:28;196.82;;;76.47;;
23310;SDS011;11828;51.508;18.118;2024-02-23T11:47:55;194.82;;;78.25;;
23310;SDS011;11828;51.508;18.118;2024-02-23T11:50:22;177.63;;;72.70;;
23310;SDS011;11828;51.508;18.118;2024-02-23T11:52:48;189.90;;;74.70;;
23310;SDS011;11828;51.508;18.118;2024-02-23T11:55:19;200.35;;;75.13;;
23310;SDS011;11828;51.508;18.118;2024-02-23T11:57:47;177.55;;;72.10;;
23310;SDS011;11828;51.508;18.118;2024-02-23T12:00:14;200.13;;;74.95;;
23310;SDS011;11828;51.508;18.118;2024-02-23T12:02:41;190.57;;;73.93;;
23310;SDS011;11828;51.508;18.118;2024-02-23T12:05:08;202.40;;;76.65;;
23310;SDS011;11828;51.508;18.118;2024-02-23T12:07:35;184.07;;;72.55;;
23310;SDS011;11828;51.508;18.118;2024-02-23T12:10:02;179.73;;;72.05;;
23310;SDS011;11828;51.508;18.118;2024-02-23T12:12:28;227.88;;;77.85;;
23310;SDS011;11828;51.508;18.118;2024-02-23T12:14:55;182.10;;;70.05;;
23310;SDS011;11828;51.508;18.118;2024-02-23T12:17:22;186.50;;;69.70;;
23310;SDS011;11828;51.508;18.118;2024-02-23T12:19:58;205.80;;;72.45;;
23310;SDS011;11828;51.508;18.118;2024-02-23T12:22:25;199.55;;;71.68;;
23310;SDS011;11828;51.508;18.118;2024-02-23T12:24:51;195.43;;;71.05;;
23310;SDS011;11828;51.508;18.118;2024-02-23T12:27:18;200.30;;;72.00;;
23310;SDS011;11828;51.508;18.118;2024-02-23T12:29:52;193.38;;;71.90;;
23310;SDS011;11828;51.508;18.118;2024-02-23T12:32:22;194.48;;;71.90;;
23310;SDS011;11828;51.508;18.118;2024-02-23T12:34:48;194.95;;;72.00;;
23310;SDS011;11828;51.508;18.118;2024-02-23T12:37:34;190.73;;;72.40;;
23310;SDS011;11828;51.508;18.118;2024-02-23T12:40:01;192.35;;;72.80;;
23310;SDS011;11828;51.508;18.118;2024-02-23T12:42:28;192.18;;;73.57;;
23310;SDS011;11828;51.508;18.118;2024-02-23T12:44:54;187.93;;;71.97;;
23310;SDS011;11828;51.508;18.118;2024-02-23T12:47:21;198.05;;;74.07;;
23310;SDS011;11828;51.508;18.118;2024-02-23T12:49:47;194.57;;;73.60;;
23310;SDS011;11828;51.508;18.118;2024-02-23T12:52:14;191.18;;;73.47;;
23310;SDS011;11828;51.508;18.118;2024-02-23T12:54:40;196.60;;;73.47;;
23310;SDS011;11828;51.508;18.118;2024-02-23T12:57:07;185.32;;;71.40;;
23310;SDS011;11828;51.508;18.118;2024-02-23T12:59:33;200.07;;;77.72;;
23310;SDS011;11828;51.508;18.118;2024-02-23T13:02:00;197.98;;;75.20;;
23310;SDS011;11828;51.508;18.118;2024-02-23T13:04:26;188.10;;;72.70;;
23310;SDS011;11828;51.508;18.118;2024-02-23T13:06:53;185.13;;;72.82;;
23310;SDS011;11828;51.508;18.118;2024-02-23T13:09:20;188.00;;;73.53;;
23310;SDS011;11828;51.508;18.118;2024-02-23T13:11:46;182.95;;;72.18;;
23310;SDS011;11828;51.508;18.118;2024-02-23T13:14:13;186.85;;;72.57;;
23310;SDS011;11828;51.508;18.118;2024-02-23T13:16:41;205.98;;;76.15;;
23310;SDS011;11828;51.508;18.118;2024-02-23T13:19:07;182.52;;;72.28;;
23310;SDS011;11828;51.508;18.118;2024-02-23T13:21:34;184.73;;;73.22;;
23310;SDS011;11828;51.508;18.118;2024-02-23T13:24:01;189.07;;;73.88;;
23310;SDS011;11828;51.508;18.118;2024-02-23T13:26:27;187.70;;;74.18;;
23310;SDS011;11828;51.508;18.118;2024-02-23T13:28:53;201.57;;;77.03;;
23310;SDS011;11828;51.508;18.118;2024-02-23T13:31:20;183.65;;;73.15;;
23310;SDS011;11828;51.508;18.118;2024-02-23T13:33:46;182.98;;;72.30;;
23310;SDS011;11828;51.508;18.118;2024-02-23T13:36:12;178.63;;;70.63;;
23310;SDS011;11828;51.508;18.118;2024-02-23T13:38:38;180.55;;;70.30;;
23310;SDS011;11828;51.508;18.118;2024-02-23T13:41:05;211.90;;;76.95;;
23310;SDS011;11828;51.508;18.118;2024-02-23T13:43:31;196.98;;;73.85;;
23310;SDS011;11828;51.508;18.118;2024-02-23T13:45:58;188.18;;;72.97;;
23310;SDS011;11828;51.508;18.118;2024-02-23T13:48:25;213.30;;;78.78;;
23310;SDS011;11828;51.508;18.118;2024-02-23T13:50:51;207.00;;;81.13;;
23310;SDS011;11828;51.508;18.118;2024-02-23T13:53:18;201.65;;;78.63;;
23310;SDS011;11828;51.508;18.118;2024-02-23T13:55:44;194.30;;;75.88;;
23310;SDS011;11828;51.508;18.118;2024-02-23T13:58:15;210.02;;;77.15;;